aviador You're here:

GMAT Decoded Metar

TAN TAN in MOROCCO
Report Time2018-06-18 15:00:00
UTC Time2018-06-18 15:31:36
Flight Rules vfr VFR
Wind320° at 14 kt
W.Decomp.*RWY 03: 5.7 kt HW 12.8 kt LCW
W.Rank320° ranks 4
Current wind is above 320° avg. (10.4)
Visibility9999 m
Phenomena:N/A
Clouds:N/A
Expected CloudBase > 4,800 ft AGL from Temp-Dew spread
CeilingNone
Temp24°C (ISA +10)
Dew Point12°C (47% RH)
AAT19.6°C
QNH1016 hPa
Density Alt1,939 ft
Elevation656 ft
Report Wrong Elevation
Raw Report
GMAT 181500Z 32014KT CAVOK 24/12 Q1016 NOSIG=

Extra information for GMAT:More info

Metar Taf Metar & Taf Last 4 Metars F.Rules Stats Wind Profile Meteogram Temp Stats Airport Information Weather charts Add Link Nearby VenuesMetar ALERT Operation Metar Decoded Social comments